createdAt,value
2019-02-05T00:01:02.942Z,1.86
2019-02-05T00:03:36.301Z,1.77
2019-02-05T00:06:11.162Z,1.73
2019-02-05T00:08:44.631Z,1.70
2019-02-05T00:11:17.950Z,1.69
2019-02-05T00:13:51.217Z,1.69
2019-02-05T00:16:24.502Z,1.71
2019-02-05T00:18:57.795Z,1.68
2019-02-05T00:21:31.091Z,1.62
2019-02-05T00:24:04.986Z,1.59
2019-02-05T00:26:38.839Z,1.61
2019-02-05T00:29:12.109Z,1.60
2019-02-05T00:31:45.410Z,1.63
2019-02-05T00:34:18.688Z,1.64
2019-02-05T00:36:52.001Z,1.72
2019-02-05T00:39:25.305Z,1.78
2019-02-05T00:41:58.974Z,1.84
2019-02-05T00:44:32.241Z,1.88
2019-02-05T00:47:06.199Z,1.86
2019-02-05T00:49:39.507Z,1.80
2019-02-05T00:52:12.786Z,1.63
2019-02-05T00:54:46.093Z,1.49
2019-02-05T00:57:19.409Z,1.54
2019-02-05T00:59:52.705Z,1.55
2019-02-05T01:02:25.989Z,1.46
2019-02-05T01:04:59.543Z,1.36
2019-02-05T01:07:32.917Z,1.11
2019-02-05T01:10:08.335Z,1.03
2019-02-05T01:12:41.731Z,0.95
2019-02-05T01:15:20.673Z,0.86
2019-02-05T01:17:54.104Z,0.76
2019-02-05T01:20:27.443Z,0.61
2019-02-05T01:23:00.731Z,0.54
2019-02-05T01:25:34.365Z,0.53
2019-02-05T01:28:07.775Z,0.42
2019-02-05T01:30:41.043Z,0.36
2019-02-05T01:33:14.352Z,0.22
2019-02-05T01:35:47.612Z,0.08
2019-02-05T01:38:20.920Z,0.08
2019-02-05T01:40:54.264Z,-0.10
2019-02-05T01:43:27.565Z,-0.19
2019-02-05T01:46:00.851Z,-0.03
2019-02-05T01:48:34.339Z,0.18
2019-02-05T01:51:07.610Z,0.11
2019-02-05T01:53:41.985Z,-0.06
2019-02-05T01:56:15.263Z,-0.17
2019-02-05T01:58:48.565Z,-0.44
2019-02-05T02:01:21.859Z,-0.82
2019-02-05T02:03:55.173Z,-0.91
2019-02-05T02:06:28.603Z,-1.01
2019-02-05T02:09:01.852Z,-0.92
2019-02-05T02:11:35.481Z,-1.08
2019-02-05T02:14:08.757Z,-1.14
2019-02-05T02:16:42.068Z,-1.15
2019-02-05T02:19:15.358Z,-1.29
2019-02-05T02:21:50.225Z,-1.39
2019-02-05T02:24:23.511Z,-1.35
2019-02-05T02:26:56.872Z,-0.48
2019-02-05T02:29:30.171Z,-0.07
2019-02-05T02:32:03.548Z,0.03
2019-02-05T02:34:36.821Z,0.11
2019-02-05T02:37:10.124Z,-0.07
2019-02-05T02:39:44.603Z,-0.27
2019-02-05T02:42:17.901Z,-0.49
2019-02-05T02:44:51.826Z,-0.69
2019-02-05T02:47:27.756Z,-0.65
2019-02-05T02:50:00.227Z,-0.66
2019-02-05T02:52:33.530Z,-0.39
2019-02-05T02:55:07.725Z,-0.18
2019-02-05T02:57:41.981Z,-0.38
2019-02-05T03:00:18.442Z,-0.67
2019-02-05T03:02:52.024Z,-0.40
2019-02-05T03:05:25.473Z,-0.21
2019-02-05T03:07:58.763Z,-0.19
2019-02-05T03:10:32.147Z,-0.36
2019-02-05T03:13:05.471Z,-0.60
2019-02-05T03:15:38.761Z,-0.88
2019-02-05T03:18:12.062Z,-1.06
2019-02-05T03:20:45.360Z,-1.22
2019-02-05T03:23:18.720Z,-1.33
2019-02-05T03:25:52.116Z,-1.25
2019-02-05T03:28:25.413Z,-1.11
2019-02-05T03:30:58.735Z,-0.91
2019-02-05T03:33:32.048Z,-0.92
2019-02-05T03:36:05.602Z,-0.39
2019-02-05T03:38:38.960Z,-0.47
2019-02-05T03:41:13.807Z,-0.33
2019-02-05T03:43:47.176Z,-0.19
2019-02-05T03:46:21.056Z,-0.18
2019-02-05T03:48:55.233Z,-0.39
2019-02-05T03:51:31.680Z,-0.32
2019-02-05T03:54:29.005Z,-0.21
2019-02-05T03:57:11.333Z,-0.22
2019-02-05T03:59:56.710Z,-0.23
2019-02-05T04:02:42.217Z,-0.27
2019-02-05T04:05:34.884Z,-0.44
2019-02-05T04:08:27.693Z,-0.54
2019-02-05T04:11:20.581Z,-0.41
2019-02-05T04:14:00.040Z,-0.60
2019-02-05T04:16:51.632Z,-0.79
2019-02-05T04:19:33.864Z,-0.69
2019-02-05T04:22:27.160Z,-1.11
2019-02-05T04:25:35.821Z,-1.28
2019-02-05T04:28:34.876Z,-1.42
2019-02-05T04:31:17.209Z,-1.66
2019-02-05T04:33:59.478Z,-1.50
2019-02-05T04:36:44.488Z,-1.39
2019-02-05T04:39:43.835Z,-1.70
2019-02-05T04:42:20.311Z,-1.68
2019-02-05T04:45:08.798Z,-1.20
2019-02-05T04:48:01.731Z,-1.01
2019-02-05T04:50:38.585Z,-1.11
2019-02-05T04:53:30.148Z,-1.24
2019-02-05T04:56:18.430Z,-1.32
2019-02-05T04:58:57.749Z,-0.90
2019-02-05T05:01:34.221Z,-0.76
2019-02-05T05:04:22.374Z,-0.77
2019-02-05T05:07:10.675Z,-0.73
2019-02-05T05:09:55.426Z,-0.85
2019-02-05T05:12:29.071Z,-0.73
2019-02-05T05:15:02.384Z,-0.74
2019-02-05T05:17:35.754Z,-0.60
2019-02-05T05:20:10.970Z,-0.49
2019-02-05T05:22:45.038Z,-0.48
2019-02-05T05:25:20.104Z,-0.45
2019-02-05T05:27:55.025Z,-0.48
2019-02-05T05:30:28.434Z,-0.42
2019-02-05T05:33:02.985Z,-0.41
2019-02-05T05:35:43.433Z,-0.43
2019-02-05T05:38:11.532Z,-0.42
2019-02-05T05:40:44.885Z,-0.47
2019-02-05T05:43:18.192Z,-0.47
2019-02-05T05:45:51.475Z,-0.43
2019-02-05T05:48:24.812Z,-0.49
2019-02-05T05:50:58.174Z,-0.45
2019-02-05T05:53:31.479Z,-0.50
2019-02-05T05:56:04.853Z,-0.51
2019-02-05T05:58:38.241Z,-0.67
2019-02-05T06:01:11.535Z,-0.69
2019-02-05T06:03:44.835Z,-0.71
2019-02-05T06:06:18.101Z,-0.79
2019-02-05T06:08:51.446Z,-0.89
2019-02-05T06:11:25.170Z,-0.87
2019-02-05T06:13:58.463Z,-0.85
2019-02-05T06:16:31.775Z,-0.88
2019-02-05T06:19:05.164Z,-0.80
2019-02-05T06:21:38.477Z,-0.78
2019-02-05T06:24:11.865Z,-0.77
2019-02-05T06:26:45.224Z,-0.75
2019-02-05T06:29:18.556Z,-0.79
2019-02-05T06:31:51.844Z,-0.75
2019-02-05T06:34:25.244Z,-0.72
2019-02-05T06:36:58.542Z,-0.68
2019-02-05T06:39:31.836Z,-0.63
2019-02-05T06:42:05.191Z,-0.58
2019-02-05T06:44:38.477Z,-0.52
2019-02-05T06:47:11.952Z,-0.58
2019-02-05T06:49:45.340Z,-0.61
2019-02-05T06:52:18.638Z,-0.59
2019-02-05T06:54:51.932Z,-0.52
2019-02-05T06:57:25.226Z,-0.41
2019-02-05T06:59:58.554Z,-0.43
2019-02-05T07:02:31.855Z,-0.34
2019-02-05T07:05:08.570Z,-0.28
2019-02-05T07:07:41.995Z,-0.22
2019-02-05T07:10:18.704Z,-0.14
2019-02-05T07:12:52.049Z,-0.12
2019-02-05T07:15:25.385Z,-0.04
2019-02-05T07:17:58.655Z,0.05
2019-02-05T07:20:31.951Z,0.10
2019-02-05T07:23:05.305Z,0.15
2019-02-05T07:25:38.609Z,0.17
2019-02-05T07:28:11.895Z,0.18
2019-02-05T07:30:45.209Z,0.23
2019-02-05T07:33:18.495Z,0.30
2019-02-05T07:35:51.786Z,0.43
2019-02-05T07:38:25.079Z,0.48
2019-02-05T07:40:58.433Z,0.53
2019-02-05T07:43:31.702Z,0.58
2019-02-05T07:46:05.393Z,0.62
2019-02-05T07:48:39.056Z,0.73
2019-02-05T07:51:12.925Z,0.72
2019-02-05T07:53:47.030Z,0.87
2019-02-05T07:56:20.331Z,0.87
2019-02-05T07:58:53.608Z,0.90
2019-02-05T08:01:26.917Z,0.97
2019-02-05T08:04:00.254Z,1.04
2019-02-05T08:06:33.557Z,1.10
2019-02-05T08:09:08.859Z,1.16
2019-02-05T08:11:42.525Z,1.13
2019-02-05T08:14:15.962Z,1.27
2019-02-05T08:16:49.253Z,1.26
2019-02-05T08:19:22.526Z,1.35
2019-02-05T08:21:55.827Z,1.46
2019-02-05T08:24:29.113Z,1.45
2019-02-05T08:27:02.411Z,1.39
2019-02-05T08:29:35.714Z,1.39
2019-02-05T08:32:09.024Z,1.42
2019-02-05T08:34:42.301Z,1.45
2019-02-05T08:37:15.604Z,1.45
2019-02-05T08:39:48.881Z,1.56
2019-02-05T08:42:22.169Z,1.54
2019-02-05T08:44:56.631Z,1.63
2019-02-05T08:47:29.940Z,1.57
2019-02-05T08:50:05.895Z,1.66
2019-02-05T08:52:39.188Z,1.74
2019-02-05T08:55:15.121Z,1.79
2019-02-05T08:57:50.561Z,1.83
2019-02-05T09:00:25.900Z,2.02
2019-02-05T09:02:59.262Z,1.98
2019-02-05T09:05:32.685Z,2.07
2019-02-05T09:08:06.113Z,2.04
2019-02-05T09:10:41.365Z,1.97
2019-02-05T09:13:14.934Z,2.20
2019-02-05T09:15:48.213Z,2.27
2019-02-05T09:18:21.502Z,2.30
2019-02-05T09:20:54.763Z,2.20
2019-02-05T09:23:28.130Z,2.33
2019-02-05T09:26:01.782Z,2.48
2019-02-05T09:28:35.090Z,2.48
2019-02-05T09:31:08.485Z,2.34
2019-02-05T09:33:41.845Z,2.46
2019-02-05T09:36:15.149Z,2.59
2019-02-05T09:38:48.410Z,2.79
2019-02-05T09:41:21.709Z,2.69
2019-02-05T09:43:55.043Z,2.51
2019-02-05T09:46:28.349Z,2.74
2019-02-05T09:49:01.625Z,2.73
2019-02-05T09:51:34.913Z,2.75
2019-02-05T09:54:08.180Z,2.66
2019-02-05T09:56:41.477Z,2.71
2019-02-05T09:59:14.760Z,3.04
2019-02-05T10:01:48.328Z,3.31
2019-02-05T10:04:21.637Z,2.97
2019-02-05T10:06:55.403Z,2.98
2019-02-05T10:09:28.767Z,3.04
2019-02-05T10:12:02.060Z,3.03
2019-02-05T10:14:35.893Z,3.08
2019-02-05T10:17:09.194Z,3.35
2019-02-05T10:19:42.479Z,3.28
2019-02-05T10:22:15.886Z,3.19
2019-02-05T10:24:49.915Z,3.11
2019-02-05T10:27:23.462Z,3.10
2019-02-05T10:29:59.528Z,3.41
2019-02-05T10:32:31.790Z,3.09
2019-02-05T10:35:07.522Z,3.33
2019-02-05T10:37:41.082Z,3.42
2019-02-05T10:40:14.601Z,3.40
2019-02-05T10:42:47.993Z,3.52
2019-02-05T10:45:23.371Z,3.44
2019-02-05T10:47:57.550Z,3.59
2019-02-05T10:50:31.115Z,3.68
2019-02-05T10:53:04.685Z,3.69
2019-02-05T10:55:37.966Z,3.70
2019-02-05T10:58:12.227Z,3.83
2019-02-05T11:00:45.508Z,3.87
2019-02-05T11:03:18.873Z,3.94
2019-02-05T11:05:52.161Z,4.04
2019-02-05T11:08:25.628Z,4.16
2019-02-05T11:10:58.930Z,4.05
2019-02-05T11:13:32.247Z,4.21
2019-02-05T11:16:05.510Z,4.27
2019-02-05T11:18:38.823Z,4.12
2019-02-05T11:21:12.203Z,4.20
2019-02-05T11:23:45.487Z,4.41
2019-02-05T11:26:19.220Z,4.49
2019-02-05T11:28:52.524Z,4.34
2019-02-05T11:31:25.830Z,4.49
2019-02-05T11:33:59.130Z,4.59
2019-02-05T11:36:32.454Z,4.47
2019-02-05T11:39:09.196Z,4.98
2019-02-05T11:41:42.474Z,4.90
2019-02-05T11:44:15.768Z,5.21
2019-02-05T11:46:49.119Z,5.44
2019-02-05T11:49:22.468Z,5.24
2019-02-05T11:51:55.831Z,5.39
2019-02-05T11:54:29.142Z,5.56
2019-02-05T11:57:02.421Z,5.16
2019-02-05T11:59:35.789Z,5.35
2019-02-05T12:02:09.634Z,5.23
2019-02-05T12:04:42.960Z,5.47
2019-02-05T12:07:16.250Z,5.68
2019-02-05T12:09:49.662Z,5.73
2019-02-05T12:12:22.942Z,5.90
2019-02-05T12:14:56.616Z,6.42
2019-02-05T12:17:31.026Z,5.96
2019-02-05T12:20:07.959Z,6.58
2019-02-05T12:22:41.298Z,6.96
2019-02-05T12:25:17.511Z,7.69
2019-02-05T12:27:50.891Z,7.75
2019-02-05T12:30:26.804Z,6.47
2019-02-05T12:33:01.757Z,6.25
2019-02-05T12:35:35.490Z,6.49
2019-02-05T12:38:09.698Z,6.31
2019-02-05T12:40:43.069Z,6.23
2019-02-05T12:43:16.429Z,6.58
2019-02-05T12:45:49.746Z,5.80
2019-02-05T12:48:23.085Z,6.49
2019-02-05T12:50:56.443Z,6.51
2019-02-05T12:53:29.816Z,6.92
2019-02-05T12:56:03.088Z,6.62
2019-02-05T12:58:36.395Z,6.75
2019-02-05T13:01:09.739Z,6.93
2019-02-05T13:03:43.041Z,6.66
2019-02-05T13:06:16.340Z,7.08
2019-02-05T13:08:49.644Z,7.55
2019-02-05T13:11:22.933Z,7.52
2019-02-05T13:13:56.232Z,7.90
2019-02-05T13:16:29.550Z,7.48
2019-02-05T13:19:03.000Z,7.57
2019-02-05T13:21:36.303Z,7.01
2019-02-05T13:24:09.998Z,7.02
2019-02-05T13:26:43.300Z,6.94
2019-02-05T13:29:16.616Z,7.28
2019-02-05T13:31:49.929Z,6.97
2019-02-05T13:34:23.245Z,7.01
2019-02-05T13:36:56.530Z,7.33
2019-02-05T13:39:29.828Z,7.47
2019-02-05T13:42:03.133Z,7.01
2019-02-05T13:44:36.455Z,7.22
2019-02-05T13:47:09.978Z,7.23
2019-02-05T13:49:43.300Z,7.46
2019-02-05T13:52:16.599Z,7.27
2019-02-05T13:54:49.917Z,7.12
2019-02-05T13:57:23.242Z,7.11
2019-02-05T13:59:56.543Z,7.15
2019-02-05T14:02:29.871Z,7.26
2019-02-05T14:05:03.746Z,7.48
2019-02-05T14:07:37.036Z,7.85
2019-02-05T14:10:28.723Z,7.81
2019-02-05T14:13:02.015Z,7.68
2019-02-05T14:15:43.569Z,7.15
2019-02-05T14:18:16.860Z,7.48
2019-02-05T14:20:50.178Z,7.17
2019-02-05T14:23:23.474Z,7.05
2019-02-05T14:25:59.638Z,7.31
2019-02-05T14:28:31.970Z,7.44
2019-02-05T14:31:05.292Z,7.19
2019-02-05T14:33:38.576Z,7.06
2019-02-05T14:36:11.915Z,7.17
2019-02-05T14:38:45.266Z,7.14
2019-02-05T14:41:18.597Z,6.81
2019-02-05T14:43:51.941Z,6.97
2019-02-05T14:46:25.272Z,6.94
2019-02-05T14:48:58.595Z,6.99
2019-02-05T14:51:32.194Z,6.98
2019-02-05T14:54:05.603Z,7.20
2019-02-05T14:56:38.882Z,7.03
2019-02-05T14:59:12.268Z,7.19
2019-02-05T15:01:45.582Z,7.16
2019-02-05T15:04:18.909Z,7.04
2019-02-05T15:06:53.810Z,7.03
2019-02-05T15:09:27.147Z,7.02
2019-02-05T15:12:00.420Z,7.01
2019-02-05T15:14:33.723Z,6.95
2019-02-05T15:17:07.038Z,6.95
2019-02-05T15:19:40.358Z,6.85
2019-02-05T15:22:13.623Z,6.85
2019-02-05T15:24:47.438Z,6.88
2019-02-05T15:27:20.747Z,6.86
2019-02-05T15:29:54.104Z,6.93
2019-02-05T15:32:47.007Z,6.84
2019-02-05T15:35:20.325Z,6.75
2019-02-05T15:37:53.632Z,6.62
2019-02-05T15:40:27.015Z,6.60
2019-02-05T15:43:00.288Z,6.59
2019-02-05T15:45:33.607Z,6.55
2019-02-05T15:48:06.972Z,6.53
2019-02-05T15:50:40.295Z,6.50
2019-02-05T15:53:15.228Z,6.55
2019-02-05T15:55:48.889Z,6.56
2019-02-05T15:58:22.219Z,6.50
2019-02-05T16:00:55.631Z,6.45
2019-02-05T16:03:28.904Z,6.40
2019-02-05T16:06:02.223Z,6.38
2019-02-05T16:08:35.619Z,6.37
2019-02-05T16:11:09.010Z,6.29
2019-02-05T16:13:42.353Z,6.23
2019-02-05T16:16:15.895Z,6.19
2019-02-05T16:18:49.483Z,6.13
2019-02-05T16:21:22.803Z,6.10
2019-02-05T16:23:58.116Z,6.09
2019-02-05T16:26:31.208Z,6.01
2019-02-05T16:29:04.610Z,5.98
2019-02-05T16:31:37.983Z,5.93
2019-02-05T16:34:11.274Z,5.87
2019-02-05T16:36:44.613Z,5.86
2019-02-05T16:39:17.928Z,5.82
2019-02-05T16:41:51.626Z,5.78
2019-02-05T16:44:24.939Z,5.75
2019-02-05T16:46:58.406Z,5.75
2019-02-05T16:49:31.736Z,5.78
2019-02-05T16:52:05.146Z,5.76
2019-02-05T16:54:39.300Z,5.74
2019-02-05T16:57:12.577Z,5.71
2019-02-05T16:59:45.965Z,5.70
2019-02-05T17:02:28.563Z,5.66
2019-02-05T17:04:54.289Z,5.64
2019-02-05T17:07:27.610Z,5.63
2019-02-05T17:10:00.930Z,5.67
2019-02-05T17:12:34.244Z,5.69
2019-02-05T17:15:10.972Z,5.70
2019-02-05T17:17:44.285Z,5.71
2019-02-05T17:20:20.482Z,5.68
2019-02-05T17:22:53.879Z,5.66
2019-02-05T17:25:28.916Z,5.56
2019-02-05T17:28:04.077Z,5.52
2019-02-05T17:30:39.548Z,5.54
2019-02-05T17:33:12.916Z,5.55
2019-02-05T17:35:46.266Z,5.55
2019-02-05T17:38:19.604Z,5.55
2019-02-05T17:40:54.660Z,5.53
2019-02-05T17:43:28.175Z,5.46
2019-02-05T17:46:01.570Z,5.39
2019-02-05T17:48:34.906Z,5.31
2019-02-05T17:51:08.264Z,5.23
2019-02-05T17:53:41.546Z,5.17
2019-02-05T17:56:14.874Z,5.12
2019-02-05T17:58:48.652Z,5.12
2019-02-05T18:01:21.941Z,5.10
2019-02-05T18:03:55.249Z,5.02
2019-02-05T18:06:28.635Z,5.00
2019-02-05T18:09:01.993Z,4.97
2019-02-05T18:11:35.386Z,4.96
2019-02-05T18:14:08.739Z,5.00
2019-02-05T18:16:45.132Z,5.00
2019-02-05T18:19:17.350Z,4.97
2019-02-05T18:21:50.843Z,4.95
2019-02-05T18:24:25.394Z,4.98
2019-02-05T18:26:58.695Z,5.02
2019-02-05T18:29:32.009Z,5.00
2019-02-05T18:32:05.969Z,4.99
2019-02-05T18:34:39.239Z,4.96
2019-02-05T18:37:13.888Z,4.90
2019-02-05T18:39:47.242Z,4.92
2019-02-05T18:42:20.691Z,4.94
2019-02-05T18:44:54.011Z,4.92
2019-02-05T18:47:27.325Z,4.99
2019-02-05T18:50:00.648Z,5.01
2019-02-05T18:52:34.046Z,4.97
2019-02-05T18:55:10.538Z,4.98
2019-02-05T18:57:44.203Z,4.93
2019-02-05T19:00:20.880Z,4.85
2019-02-05T19:02:54.318Z,4.73
2019-02-05T19:05:28.298Z,4.68
2019-02-05T19:08:01.901Z,4.66
2019-02-05T19:10:35.451Z,4.71
2019-02-05T19:13:08.870Z,4.66
2019-02-05T19:15:43.088Z,4.57
2019-02-05T19:18:16.445Z,4.58
2019-02-05T19:20:49.707Z,4.56
2019-02-05T19:23:23.099Z,4.56
2019-02-05T19:26:03.627Z,4.55
2019-02-05T19:28:37.114Z,4.46
2019-02-05T19:31:12.039Z,4.42
2019-02-05T19:33:46.951Z,4.49
2019-02-05T19:36:20.269Z,4.53
2019-02-05T19:38:53.638Z,4.50
2019-02-05T19:41:26.906Z,4.55
2019-02-05T19:44:00.214Z,4.54
2019-02-05T19:46:38.581Z,4.48
2019-02-05T19:49:21.797Z,4.53
2019-02-05T19:51:51.540Z,4.58
2019-02-05T19:54:25.438Z,4.65
2019-02-05T19:56:58.750Z,4.67
2019-02-05T19:59:32.464Z,4.65
2019-02-05T20:02:06.498Z,4.56
2019-02-05T20:04:39.903Z,4.45
2019-02-05T20:07:13.292Z,4.40
2019-02-05T20:09:46.618Z,4.40
2019-02-05T20:12:19.946Z,4.37
2019-02-05T20:14:53.609Z,4.32
2019-02-05T20:17:27.041Z,4.25
2019-02-05T20:20:00.385Z,4.16
2019-02-05T20:22:33.720Z,4.18
2019-02-05T20:25:09.976Z,4.29
2019-02-05T20:27:43.298Z,4.21
2019-02-05T20:30:24.272Z,4.01
2019-02-05T20:32:57.589Z,3.87
2019-02-05T20:35:30.896Z,3.80
2019-02-05T20:38:04.411Z,3.70
2019-02-05T20:40:37.727Z,3.56
2019-02-05T20:43:11.168Z,3.48
2019-02-05T20:45:44.477Z,3.38
2019-02-05T20:48:18.035Z,3.23
2019-02-05T20:50:51.477Z,3.08
2019-02-05T20:53:25.320Z,2.89
2019-02-05T20:56:00.574Z,2.78
2019-02-05T20:58:33.860Z,2.64
2019-02-05T21:01:07.525Z,2.55
2019-02-05T21:03:42.154Z,2.44
2019-02-05T21:06:15.434Z,2.23
2019-02-05T21:08:49.782Z,2.16
2019-02-05T21:11:23.067Z,2.12
2019-02-05T21:13:56.399Z,1.94
2019-02-05T21:16:29.679Z,1.83
2019-02-05T21:19:02.961Z,1.77
2019-02-05T21:21:36.263Z,1.56
2019-02-05T21:24:09.581Z,1.49
2019-02-05T21:26:42.949Z,1.50
2019-02-05T21:29:16.314Z,1.43
2019-02-05T21:31:49.572Z,1.38
2019-02-05T21:34:22.887Z,1.36
2019-02-05T21:36:56.450Z,1.20
2019-02-05T21:39:29.743Z,1.10
2019-02-05T21:42:03.035Z,1.07
2019-02-05T21:44:37.536Z,1.03
2019-02-05T21:47:10.864Z,0.92
2019-02-05T21:49:44.169Z,0.81
2019-02-05T21:52:18.555Z,0.67
2019-02-05T21:54:51.885Z,0.31
2019-02-05T21:57:25.167Z,0.32
2019-02-05T21:59:59.031Z,0.46
2019-02-05T22:02:32.372Z,0.47
2019-02-05T22:05:08.810Z,0.36
2019-02-05T22:07:42.192Z,0.35
2019-02-05T22:10:15.536Z,0.28
2019-02-05T22:12:48.862Z,0.22
2019-02-05T22:15:23.842Z,0.17
2019-02-05T22:17:57.167Z,-0.02
2019-02-05T22:20:32.500Z,-0.31
2019-02-05T22:23:05.868Z,-0.15
2019-02-05T22:25:39.185Z,-0.22
2019-02-05T22:28:12.953Z,-0.21
2019-02-05T22:30:46.265Z,-0.11
2019-02-05T22:33:19.557Z,-0.15
2019-02-05T22:35:52.882Z,-0.16
2019-02-05T22:38:26.157Z,-0.17
2019-02-05T22:40:59.501Z,-0.22
2019-02-05T22:43:32.789Z,-0.41
2019-02-05T22:46:06.192Z,-0.48
2019-02-05T22:48:39.863Z,-0.53
2019-02-05T22:51:13.179Z,-0.64
2019-02-05T22:53:46.489Z,-0.72
2019-02-05T22:56:20.300Z,-0.72
2019-02-05T22:58:54.062Z,-0.59
2019-02-05T23:01:33.616Z,-0.58
2019-02-05T23:04:09.991Z,-0.80
2019-02-05T23:06:50.053Z,-0.95
2019-02-05T23:09:41.748Z,-1.06
2019-02-05T23:12:31.023Z,-1.17
2019-02-05T23:15:13.167Z,-1.25
2019-02-05T23:17:46.573Z,-1.26
2019-02-05T23:20:19.976Z,-1.18
2019-02-05T23:22:57.147Z,-1.21
2019-02-05T23:25:31.010Z,-1.24
2019-02-05T23:28:04.474Z,-1.15
2019-02-05T23:30:37.856Z,-1.19
2019-02-05T23:33:11.335Z,-1.20
2019-02-05T23:35:44.654Z,-1.35
2019-02-05T23:38:19.484Z,-1.48
2019-02-05T23:40:52.793Z,-1.61
2019-02-05T23:43:26.744Z,-1.66
2019-02-05T23:46:01.647Z,-1.49
2019-02-05T23:48:35.188Z,-1.44
2019-02-05T23:51:08.568Z,-1.42
2019-02-05T23:53:41.864Z,-1.46
2019-02-05T23:56:25.369Z,-1.45
2019-02-05T23:58:50.455Z,-1.43
